Cheyenne, WY

2:03 PM MDT on May 05, 2015 (GMT -0600)
Cheyenne | | Change Station
CLOSE
Current Station
Airport
Location: Cheyenne,
Elevation: 6142 ft
Nearby Weather Stations
Active Advisory: Dense Fog Advisory

Elev 6142 ft 41.16 °N, 104.81 °W | Updated 10 minutes ago

Overcast
Overcast
47 °F
Feels Like 47 °F
N
14
Wind Variable Wind from SSE
Gusts 20 mph

Today
High -- | Low -- °F
--% Chance of Precip.
Yesterday
High -- | Low -- °F
Precip. -- in
5:52 AM 8:00 PM
Full, 97% visible
Pressure 29.84 in
Visibility 0.1 miles
Clouds Overcast 200 ft
Dew Point 46 °F
Humidity 97%
Rainfall 0.02 in
Snow Depth Not available.
UV 3 out of 12
Pollen 7.20 out of 12
Air Quality Not available.
Flu Activity Sporadic
METAR KCYS 051953Z 15012G17KT 1/16SM -RA FG OVC002 08/08 A2993 RMK AO2 SFC VIS 1/4 SLP105 P0002 T00830078 RVRNO

More Conditions Fewer Conditions

Pressure 29.84 in
Visibility 0.1 miles
Clouds Overcast 200 ft
Dew Point 46 °F
Humidity 97%
Rainfall 0.02 in
Snow Depth Not available.
UV 3 out of 12
Pollen 7.20 out of 12
Air Quality Not available.
Flu Activity Sporadic
METAR KCYS 051953Z 15012G17KT 1/16SM -RA FG OVC002 08/08 A2993 RMK AO2 SFC VIS 1/4 SLP105 P0002 T00830078 RVRNO

More Conditions Fewer Conditions

10-Day Weather Forecast

Almanac

Astronomy

May. 05, 2015 Rise Set
Actual Time
Civil Twilight
Nautical Twilight
Astronomical Twilight
Moon
Length of Visible Light
Length of Day
Tomorrow will be .
, % of the Moon is Illuminated

Today's Extremes

State Highs State Lows

Community

WunderPhotos

Upload Photos

1,818,965 photos uploaded!

WunderBlogs® & News

Nearby

Air Quality

  Air Quality AQ Index Pollutant
Not available.

Snow Depth

Station Depth Elevation

Earthquake Activity

City Distance Mag. Time & Date
Minimum magnitude displayed is 2.5.

Coastal Water Temperatures

Place Temperature

Stations

Nearby Weather Stations

Station Location Temp. Windchill Dew Point Humidity Wind Precip. Elev Updated Type
                   
Dense Fog Advisory
Statement as of 11:38 AM MDT on May 05, 2015

... Dense fog advisory now in effect until 3 PM MDT this
afternoon...

* timing... dense fog will remain in place through mid afternoon
before lifting.

* Visibility... less than one quarter mile... and as low as a few
hundred feet at times.

* Impacts... very low visibilities will produce poor travel
conditions. Motorists should use their low beam headlights and
reduce speeds when encountering low visibilities.

Precautionary/preparedness actions...

A dense fog advisory means visibilities will frequently be
reduced to less than one quarter mile. If driving... slow down...
use your headlights... and leave plenty of distance ahead of you.